Bruce Crossing, MI (49912)

9:45 AM EDT on September 03, 2015 (GMT -0400)
Ewen MI | | Change Station
CLOSE
Current Station
Personal Weather Station
Location: Ewen, MI
Elevation: 1181 ft
Nearby Weather Stations
Active Advisory: Dense Fog Advisory

Elev 1181 ft 46.52 °N, 89.27 °W | Updated 14 minutes ago

Partly Cloudy
Partly Cloudy
62.6 °F
Feels Like 62.6 °F
N
3.7
Wind Variable Wind from South

Today
High -- | Low -- °F
--% Chance of Precip.
Yesterday
High -- | Low -- °F
Precip. -- in
7:19 AM 8:32 PM
Waning Gibbous, 70% visible
Pressure 30.01 in
Visibility 10.0 miles
Clouds Clear
Dew Point 62 °F
Humidity 99%
Rainfall 0.02 in
Snow Depth Not available.
UV 2 out of 12
Pollen 6.40 out of 12
Air Quality Not available.
Flu Activity Not available.
METAR KLNL 031335Z AUTO 09004KT 10SM CLR 18/16 A3001 RMK AO2 P0001 T01800164
Pressure 30.01 in
Visibility 10.0 miles
Clouds Clear
Dew Point 62 °F
Humidity 99%
Rainfall 0.02 in
Snow Depth Not available.
UV 2 out of 12
Pollen 6.40 out of 12
Air Quality Not available.
Flu Activity Not available.
METAR KLNL 031335Z AUTO 09004KT 10SM CLR 18/16 A3001 RMK AO2 P0001 T01800164

10-Day Weather Forecast

×

Almanac

Astronomy

Sep. 03, 2015 Rise Set
Actual Time
Civil Twilight
Nautical Twilight
Astronomical Twilight
Moon
Length of Visible Light
Length of Day
Tomorrow will be .
, % of the Moon is Illuminated

Today's Extremes

State Highs State Lows

Community

WunderPhotos

Upload Photos

1,851,952 photos uploaded!

WunderBlogs® & News

Nearby

Air Quality

  Air Quality AQ Index Pollutant
Not available.

Snow Depth

Station Depth Elevation

Earthquake Activity

City Distance Mag. Time & Date
Minimum magnitude displayed is 2.5.

Coastal Water Temperatures

Place Temperature

Stations

Nearby Weather Stations

Station Location Temp. Windchill Dew Point Humidity Wind Precip. Elev Updated Type
                   
Dense Fog Advisory
Statement as of 2:14 AM CDT on September 03, 2015

... Dense fog advisory in effect until 10 am EDT /9 am CDT/ this
morning...

The National Weather Service in Marquette has issued a dense fog
advisory... which is in effect until 10 am EDT /9 am CDT/ this
morning.

Hazardous weather...

* widespread dense fog with visibilities reduced to less than one
   quarter of a mile will persist through the morning commute for
   much of western Upper Michigan.

Impacts...

* driving will be more hazardous due to reduced visibility. Drive
   with low beam headlights on and reduce speed.

Precautionary/preparedness actions...

* a dense fog advisory means visibilities will frequently be
reduced to less than one quarter mile.

* Prepare... plan... and stay informed. Visit www.Weather.Gov/MQT



Mrd